sensor_id;sensor_type;location;lat;lon;timestamp;temperature;humidity
78876;DHT22;68253;52.506;5.486;2023-03-23T00:01:01;18.00;58.90
78876;DHT22;68253;52.506;5.486;2023-03-23T00:03:29;18.00;58.90
78876;DHT22;68253;52.506;5.486;2023-03-23T00:06:01;18.10;58.90
78876;DHT22;68253;52.506;5.486;2023-03-23T00:08:37;18.00;58.90
78876;DHT22;68253;52.506;5.486;2023-03-23T00:11:21;18.10;58.90
78876;DHT22;68253;52.506;5.486;2023-03-23T00:13:50;18.00;58.90
78876;DHT22;68253;52.506;5.486;2023-03-23T00:16:24;18.00;58.90
78876;DHT22;68253;52.506;5.486;2023-03-23T00:19:02;18.00;58.90
78876;DHT22;68253;52.506;5.486;2023-03-23T00:21:34;18.00;58.90
78876;DHT22;68253;52.506;5.486;2023-03-23T00:24:10;18.00;58.90
78876;DHT22;68253;52.506;5.486;2023-03-23T00:26:38;18.00;58.90
78876;DHT22;68253;52.506;5.486;2023-03-23T00:29:08;18.00;58.90
78876;DHT22;68253;52.506;5.486;2023-03-23T00:31:39;18.00;58.90
78876;DHT22;68253;52.506;5.486;2023-03-23T00:34:06;18.00;58.90
78876;DHT22;68253;52.506;5.486;2023-03-23T00:36:33;18.00;58.90
78876;DHT22;68253;52.506;5.486;2023-03-23T00:39:03;18.00;58.90
78876;DHT22;68253;52.506;5.486;2023-03-23T00:41:30;18.00;58.80
78876;DHT22;68253;52.506;5.486;2023-03-23T00:43:57;18.00;58.90
78876;DHT22;68253;52.506;5.486;2023-03-23T00:46:27;18.00;58.80
78876;DHT22;68253;52.506;5.486;2023-03-23T00:48:54;18.00;58.90
78876;DHT22;68253;52.506;5.486;2023-03-23T00:51:23;18.00;58.80
78876;DHT22;68253;52.506;5.486;2023-03-23T00:53:50;18.00;58.80
78876;DHT22;68253;52.506;5.486;2023-03-23T00:56:17;18.00;58.80
78876;DHT22;68253;52.506;5.486;2023-03-23T00:58:43;18.00;58.80
78876;DHT22;68253;52.506;5.486;2023-03-23T01:01:09;18.00;58.80
78876;DHT22;68253;52.506;5.486;2023-03-23T01:03:36;18.00;58.80
78876;DHT22;68253;52.506;5.486;2023-03-23T01:06:07;18.00;58.80
78876;DHT22;68253;52.506;5.486;2023-03-23T01:08:34;18.00;58.80
78876;DHT22;68253;52.506;5.486;2023-03-23T01:11:06;18.00;58.80
78876;DHT22;68253;52.506;5.486;2023-03-23T01:13:33;18.00;58.80
78876;DHT22;68253;52.506;5.486;2023-03-23T01:15:59;18.00;58.80
78876;DHT22;68253;52.506;5.486;2023-03-23T01:18:25;18.00;58.80
78876;DHT22;68253;52.506;5.486;2023-03-23T01:20:51;18.00;58.80
78876;DHT22;68253;52.506;5.486;2023-03-23T01:23:17;18.00;58.80
78876;DHT22;68253;52.506;5.486;2023-03-23T01:25:43;18.00;58.80
78876;DHT22;68253;52.506;5.486;2023-03-23T01:28:11;18.00;58.80
78876;DHT22;68253;52.506;5.486;2023-03-23T01:30:37;18.00;58.80
78876;DHT22;68253;52.506;5.486;2023-03-23T01:33:03;18.00;58.80
78876;DHT22;68253;52.506;5.486;2023-03-23T01:35:30;18.00;58.80
78876;DHT22;68253;52.506;5.486;2023-03-23T01:37:56;18.00;58.80
78876;DHT22;68253;52.506;5.486;2023-03-23T01:40:22;18.00;58.80
78876;DHT22;68253;52.506;5.486;2023-03-23T01:42:48;18.00;58.80
78876;DHT22;68253;52.506;5.486;2023-03-23T01:47:50;18.00;58.80
78876;DHT22;68253;52.506;5.486;2023-03-23T01:50:19;18.00;58.80
78876;DHT22;68253;52.506;5.486;2023-03-23T01:52:50;18.00;58.80
78876;DHT22;68253;52.506;5.486;2023-03-23T01:55:17;18.00;58.80
78876;DHT22;68253;52.506;5.486;2023-03-23T01:57:44;18.00;58.80
78876;DHT22;68253;52.506;5.486;2023-03-23T02:00:13;18.00;58.80
78876;DHT22;68253;52.506;5.486;2023-03-23T02:02:50;18.00;58.80
78876;DHT22;68253;52.506;5.486;2023-03-23T02:05:40;18.00;58.70
78876;DHT22;68253;52.506;5.486;2023-03-23T02:08:14;18.00;58.70
78876;DHT22;68253;52.506;5.486;2023-03-23T02:10:40;18.00;58.80
78876;DHT22;68253;52.506;5.486;2023-03-23T02:13:09;18.00;58.70
78876;DHT22;68253;52.506;5.486;2023-03-23T02:15:47;18.00;58.80
78876;DHT22;68253;52.506;5.486;2023-03-23T02:18:37;18.00;58.80
78876;DHT22;68253;52.506;5.486;2023-03-23T02:26:42;18.00;58.70
78876;DHT22;68253;52.506;5.486;2023-03-23T02:35:21;18.00;58.80
78876;DHT22;68253;52.506;5.486;2023-03-23T02:37:59;18.00;58.80
78876;DHT22;68253;52.506;5.486;2023-03-23T02:40:38;18.00;58.80
78876;DHT22;68253;52.506;5.486;2023-03-23T02:43:09;18.00;58.80
78876;DHT22;68253;52.506;5.486;2023-03-23T02:45:38;18.00;58.80
78876;DHT22;68253;52.506;5.486;2023-03-23T02:48:07;18.00;58.70
78876;DHT22;68253;52.506;5.486;2023-03-23T02:50:35;18.00;58.70
78876;DHT22;68253;52.506;5.486;2023-03-23T02:53:07;18.00;58.80
78876;DHT22;68253;52.506;5.486;2023-03-23T02:55:34;18.00;58.70
78876;DHT22;68253;52.506;5.486;2023-03-23T02:58:03;18.00;58.70
78876;DHT22;68253;52.506;5.486;2023-03-23T03:00:29;18.00;58.70
78876;DHT22;68253;52.506;5.486;2023-03-23T03:02:56;18.00;58.80
78876;DHT22;68253;52.506;5.486;2023-03-23T03:05:32;18.00;58.80
78876;DHT22;68253;52.506;5.486;2023-03-23T03:10:34;18.00;58.70
78876;DHT22;68253;52.506;5.486;2023-03-23T03:13:51;18.00;58.70
78876;DHT22;68253;52.506;5.486;2023-03-23T03:19:12;18.00;58.70
78876;DHT22;68253;52.506;5.486;2023-03-23T03:21:43;18.00;58.70
78876;DHT22;68253;52.506;5.486;2023-03-23T03:24:13;18.00;58.70
78876;DHT22;68253;52.506;5.486;2023-03-23T03:26:43;18.00;58.70
78876;DHT22;68253;52.506;5.486;2023-03-23T03:29:36;18.00;58.70
78876;DHT22;68253;52.506;5.486;2023-03-23T03:32:05;18.00;58.70
78876;DHT22;68253;52.506;5.486;2023-03-23T03:34:34;18.00;58.70
78876;DHT22;68253;52.506;5.486;2023-03-23T03:37:02;18.00;58.70
78876;DHT22;68253;52.506;5.486;2023-03-23T03:39:35;18.00;58.70
78876;DHT22;68253;52.506;5.486;2023-03-23T03:42:04;18.00;58.60
78876;DHT22;68253;52.506;5.486;2023-03-23T03:44:32;18.00;58.60
78876;DHT22;68253;52.506;5.486;2023-03-23T03:46:58;18.00;58.60
78876;DHT22;68253;52.506;5.486;2023-03-23T03:49:24;18.00;58.60
78876;DHT22;68253;52.506;5.486;2023-03-23T03:51:53;18.00;58.60
78876;DHT22;68253;52.506;5.486;2023-03-23T03:54:24;18.00;58.60
78876;DHT22;68253;52.506;5.486;2023-03-23T03:56:51;18.00;58.60
78876;DHT22;68253;52.506;5.486;2023-03-23T03:59:47;18.00;58.60
78876;DHT22;68253;52.506;5.486;2023-03-23T04:02:17;18.00;58.60
78876;DHT22;68253;52.506;5.486;2023-03-23T04:04:49;18.00;58.60
78876;DHT22;68253;52.506;5.486;2023-03-23T04:07:15;18.00;58.60
78876;DHT22;68253;52.506;5.486;2023-03-23T04:09:45;18.00;58.60
78876;DHT22;68253;52.506;5.486;2023-03-23T04:12:15;18.00;58.60
78876;DHT22;68253;52.506;5.486;2023-03-23T04:14:56;18.00;58.60
78876;DHT22;68253;52.506;5.486;2023-03-23T04:17:27;18.00;58.60
78876;DHT22;68253;52.506;5.486;2023-03-23T04:19:54;18.00;58.60
78876;DHT22;68253;52.506;5.486;2023-03-23T04:22:25;18.00;58.60
78876;DHT22;68253;52.506;5.486;2023-03-23T04:24:57;18.00;58.60
78876;DHT22;68253;52.506;5.486;2023-03-23T04:27:25;18.00;58.60
78876;DHT22;68253;52.506;5.486;2023-03-23T04:29:56;18.00;58.60
78876;DHT22;68253;52.506;5.486;2023-03-23T04:32:41;17.90;58.70
78876;DHT22;68253;52.506;5.486;2023-03-23T04:35:12;18.00;58.70
78876;DHT22;68253;52.506;5.486;2023-03-23T04:37:45;18.00;58.60
78876;DHT22;68253;52.506;5.486;2023-03-23T04:40:15;18.00;58.60
78876;DHT22;68253;52.506;5.486;2023-03-23T04:42:47;18.00;58.60
78876;DHT22;68253;52.506;5.486;2023-03-23T04:45:26;18.00;58.60
78876;DHT22;68253;52.506;5.486;2023-03-23T04:47:53;18.00;58.60
78876;DHT22;68253;52.506;5.486;2023-03-23T04:50:28;18.00;58.60
78876;DHT22;68253;52.506;5.486;2023-03-23T04:52:59;18.00;58.60
78876;DHT22;68253;52.506;5.486;2023-03-23T04:55:35;18.00;58.60
78876;DHT22;68253;52.506;5.486;2023-03-23T04:58:03;18.00;58.60
78876;DHT22;68253;52.506;5.486;2023-03-23T05:00:37;18.00;58.60
78876;DHT22;68253;52.506;5.486;2023-03-23T05:03:04;18.00;58.60
78876;DHT22;68253;52.506;5.486;2023-03-23T05:05:34;18.00;58.60
78876;DHT22;68253;52.506;5.486;2023-03-23T05:08:05;18.00;58.60
78876;DHT22;68253;52.506;5.486;2023-03-23T05:10:35;18.00;58.60
78876;DHT22;68253;52.506;5.486;2023-03-23T05:13:06;18.00;58.60
78876;DHT22;68253;52.506;5.486;2023-03-23T05:15:32;18.00;58.60
78876;DHT22;68253;52.506;5.486;2023-03-23T05:18:00;18.00;58.60
78876;DHT22;68253;52.506;5.486;2023-03-23T05:20:27;18.00;58.60
78876;DHT22;68253;52.506;5.486;2023-03-23T05:22:58;18.00;58.60
78876;DHT22;68253;52.506;5.486;2023-03-23T05:25:30;18.00;58.60
78876;DHT22;68253;52.506;5.486;2023-03-23T05:28:04;18.00;58.60
78876;DHT22;68253;52.506;5.486;2023-03-23T05:30:51;18.00;58.60
78876;DHT22;68253;52.506;5.486;2023-03-23T05:33:19;17.90;58.60
78876;DHT22;68253;52.506;5.486;2023-03-23T05:35:52;18.00;58.60
78876;DHT22;68253;52.506;5.486;2023-03-23T05:38:25;18.00;58.60
78876;DHT22;68253;52.506;5.486;2023-03-23T05:40:52;18.00;58.60
78876;DHT22;68253;52.506;5.486;2023-03-23T05:43:24;17.90;58.60
78876;DHT22;68253;52.506;5.486;2023-03-23T05:46:05;18.00;58.60
78876;DHT22;68253;52.506;5.486;2023-03-23T05:48:33;17.90;58.60
78876;DHT22;68253;52.506;5.486;2023-03-23T05:51:00;17.90;58.60
78876;DHT22;68253;52.506;5.486;2023-03-23T05:53:28;17.90;58.60
78876;DHT22;68253;52.506;5.486;2023-03-23T05:56:01;17.90;58.60
78876;DHT22;68253;52.506;5.486;2023-03-23T05:58:43;17.90;58.60
78876;DHT22;68253;52.506;5.486;2023-03-23T06:01:10;17.90;58.60
78876;DHT22;68253;52.506;5.486;2023-03-23T06:03:40;17.90;58.60
78876;DHT22;68253;52.506;5.486;2023-03-23T06:06:16;17.90;58.60
78876;DHT22;68253;52.506;5.486;2023-03-23T06:08:59;17.90;58.60
78876;DHT22;68253;52.506;5.486;2023-03-23T06:11:40;17.90;58.60
78876;DHT22;68253;52.506;5.486;2023-03-23T06:14:28;17.90;58.60
78876;DHT22;68253;52.506;5.486;2023-03-23T06:16:55;17.90;58.60
78876;DHT22;68253;52.506;5.486;2023-03-23T06:19:21;17.80;58.60
78876;DHT22;68253;52.506;5.486;2023-03-23T06:21:58;17.90;58.60
78876;DHT22;68253;52.506;5.486;2023-03-23T06:24:45;17.90;58.60
78876;DHT22;68253;52.506;5.486;2023-03-23T06:27:14;17.90;58.60
78876;DHT22;68253;52.506;5.486;2023-03-23T06:29:42;17.90;58.60
78876;DHT22;68253;52.506;5.486;2023-03-23T06:32:10;17.90;58.60
78876;DHT22;68253;52.506;5.486;2023-03-23T06:34:38;17.90;58.60
78876;DHT22;68253;52.506;5.486;2023-03-23T06:37:24;17.90;58.60
78876;DHT22;68253;52.506;5.486;2023-03-23T06:40:15;17.80;58.70
78876;DHT22;68253;52.506;5.486;2023-03-23T06:42:49;17.80;58.60
78876;DHT22;68253;52.506;5.486;2023-03-23T06:45:35;17.80;58.60
78876;DHT22;68253;52.506;5.486;2023-03-23T06:48:21;17.80;58.70
78876;DHT22;68253;52.506;5.486;2023-03-23T06:50:48;17.80;58.60
78876;DHT22;68253;52.506;5.486;2023-03-23T06:53:17;17.80;58.60
78876;DHT22;68253;52.506;5.486;2023-03-23T06:55:45;17.90;58.60
78876;DHT22;68253;52.506;5.486;2023-03-23T06:58:11;17.90;58.60
78876;DHT22;68253;52.506;5.486;2023-03-23T07:00:39;17.90;58.60
78876;DHT22;68253;52.506;5.486;2023-03-23T07:03:07;18.00;58.60
78876;DHT22;68253;52.506;5.486;2023-03-23T07:05:34;18.00;58.60
78876;DHT22;68253;52.506;5.486;2023-03-23T07:08:03;18.00;58.50
78876;DHT22;68253;52.506;5.486;2023-03-23T07:10:33;18.00;58.50
78876;DHT22;68253;52.506;5.486;2023-03-23T07:13:00;18.00;58.50
78876;DHT22;68253;52.506;5.486;2023-03-23T07:15:30;18.00;58.50
78876;DHT22;68253;52.506;5.486;2023-03-23T07:17:57;18.00;58.50
78876;DHT22;68253;52.506;5.486;2023-03-23T07:20:31;18.00;58.50
78876;DHT22;68253;52.506;5.486;2023-03-23T07:22:58;18.00;58.40
78876;DHT22;68253;52.506;5.486;2023-03-23T07:25:38;18.00;58.50
78876;DHT22;68253;52.506;5.486;2023-03-23T07:28:06;18.00;58.40
78876;DHT22;68253;52.506;5.486;2023-03-23T07:30:32;18.00;58.50
78876;DHT22;68253;52.506;5.486;2023-03-23T07:32:58;18.00;58.40
78876;DHT22;68253;52.506;5.486;2023-03-23T07:35:25;18.00;58.40
78876;DHT22;68253;52.506;5.486;2023-03-23T07:37:57;18.00;58.40
78876;DHT22;68253;52.506;5.486;2023-03-23T07:40:25;18.00;58.40
78876;DHT22;68253;52.506;5.486;2023-03-23T07:42:56;18.00;58.40
78876;DHT22;68253;52.506;5.486;2023-03-23T07:45:43;18.00;58.40
78876;DHT22;68253;52.506;5.486;2023-03-23T07:48:11;18.00;58.40
78876;DHT22;68253;52.506;5.486;2023-03-23T07:50:38;18.00;58.40
78876;DHT22;68253;52.506;5.486;2023-03-23T07:53:08;18.00;58.40
78876;DHT22;68253;52.506;5.486;2023-03-23T07:55:36;18.00;58.40
78876;DHT22;68253;52.506;5.486;2023-03-23T07:58:06;18.00;58.40
78876;DHT22;68253;52.506;5.486;2023-03-23T08:00:33;18.00;58.40
78876;DHT22;68253;52.506;5.486;2023-03-23T08:03:05;18.00;58.40
78876;DHT22;68253;52.506;5.486;2023-03-23T08:05:44;18.00;58.40
78876;DHT22;68253;52.506;5.486;2023-03-23T08:08:28;18.00;58.40
78876;DHT22;68253;52.506;5.486;2023-03-23T08:10:56;17.90;58.50
78876;DHT22;68253;52.506;5.486;2023-03-23T08:13:45;18.00;58.50
78876;DHT22;68253;52.506;5.486;2023-03-23T08:16:30;18.00;58.40
78876;DHT22;68253;52.506;5.486;2023-03-23T08:19:16;18.00;58.50
78876;DHT22;68253;52.506;5.486;2023-03-23T08:22:14;18.00;58.50
78876;DHT22;68253;52.506;5.486;2023-03-23T08:25:14;17.90;58.50
78876;DHT22;68253;52.506;5.486;2023-03-23T08:27:59;17.90;58.50
78876;DHT22;68253;52.506;5.486;2023-03-23T08:30:40;17.90;58.50
78876;DHT22;68253;52.506;5.486;2023-03-23T08:33:29;18.00;58.50
78876;DHT22;68253;52.506;5.486;2023-03-23T08:36:13;18.00;58.50
78876;DHT22;68253;52.506;5.486;2023-03-23T08:38:52;18.00;58.50
78876;DHT22;68253;52.506;5.486;2023-03-23T08:41:33;18.00;58.50
78876;DHT22;68253;52.506;5.486;2023-03-23T08:44:15;18.00;58.50
78876;DHT22;68253;52.506;5.486;2023-03-23T08:46:53;18.00;58.50
78876;DHT22;68253;52.506;5.486;2023-03-23T08:49:45;18.00;58.50
78876;DHT22;68253;52.506;5.486;2023-03-23T08:52:34;18.00;58.50
78876;DHT22;68253;52.506;5.486;2023-03-23T08:55:28;18.00;58.50
78876;DHT22;68253;52.506;5.486;2023-03-23T08:58:20;18.00;58.50
78876;DHT22;68253;52.506;5.486;2023-03-23T09:00:55;18.00;58.50
78876;DHT22;68253;52.506;5.486;2023-03-23T09:03:44;18.10;58.50
78876;DHT22;68253;52.506;5.486;2023-03-23T09:06:35;18.10;58.50
78876;DHT22;68253;52.506;5.486;2023-03-23T09:09:03;18.10;58.50
78876;DHT22;68253;52.506;5.486;2023-03-23T09:11:36;18.10;58.50
78876;DHT22;68253;52.506;5.486;2023-03-23T09:14:03;18.10;58.60
78876;DHT22;68253;52.506;5.486;2023-03-23T09:16:30;18.20;58.60
78876;DHT22;68253;52.506;5.486;2023-03-23T09:18:57;18.20;58.60
78876;DHT22;68253;52.506;5.486;2023-03-23T09:21:25;18.20;58.60
78876;DHT22;68253;52.506;5.486;2023-03-23T09:23:51;18.20;58.60
78876;DHT22;68253;52.506;5.486;2023-03-23T09:26:18;18.30;58.60
78876;DHT22;68253;52.506;5.486;2023-03-23T09:28:44;18.30;58.70
78876;DHT22;68253;52.506;5.486;2023-03-23T09:31:12;18.30;58.80
78876;DHT22;68253;52.506;5.486;2023-03-23T09:33:38;18.40;58.90
78876;DHT22;68253;52.506;5.486;2023-03-23T09:36:05;18.50;58.90
78876;DHT22;68253;52.506;5.486;2023-03-23T09:38:33;18.50;59.00
78876;DHT22;68253;52.506;5.486;2023-03-23T09:47:09;18.70;59.00
78876;DHT22;68253;52.506;5.486;2023-03-23T09:49:51;18.70;59.00
78876;DHT22;68253;52.506;5.486;2023-03-23T09:52:19;18.80;59.10
78876;DHT22;68253;52.506;5.486;2023-03-23T09:54:49;18.80;59.10
78876;DHT22;68253;52.506;5.486;2023-03-23T09:57:30;18.80;59.10
78876;DHT22;68253;52.506;5.486;2023-03-23T10:00:03;18.90;59.10
78876;DHT22;68253;52.506;5.486;2023-03-23T10:05:36;19.10;59.10
78876;DHT22;68253;52.506;5.486;2023-03-23T10:08:14;19.10;59.10
78876;DHT22;68253;52.506;5.486;2023-03-23T10:11:02;19.20;59.10
78876;DHT22;68253;52.506;5.486;2023-03-23T10:16:09;19.20;59.10
78876;DHT22;68253;52.506;5.486;2023-03-23T10:18:51;19.30;59.10
78876;DHT22;68253;52.506;5.486;2023-03-23T10:21:21;19.30;59.20
78876;DHT22;68253;52.506;5.486;2023-03-23T10:23:59;19.40;59.20
78876;DHT22;68253;52.506;5.486;2023-03-23T10:28:58;19.50;59.20
78876;DHT22;68253;52.506;5.486;2023-03-23T10:31:31;19.50;59.20
78876;DHT22;68253;52.506;5.486;2023-03-23T10:34:04;19.50;59.20
78876;DHT22;68253;52.506;5.486;2023-03-23T10:36:37;19.60;59.20
78876;DHT22;68253;52.506;5.486;2023-03-23T10:41:33;19.60;59.20
78876;DHT22;68253;52.506;5.486;2023-03-23T10:44:00;19.50;59.30
78876;DHT22;68253;52.506;5.486;2023-03-23T10:49:28;19.70;59.30
78876;DHT22;68253;52.506;5.486;2023-03-23T10:54:37;19.70;59.40
78876;DHT22;68253;52.506;5.486;2023-03-23T10:57:33;19.70;59.40
78876;DHT22;68253;52.506;5.486;2023-03-23T11:00:20;19.70;59.30
78876;DHT22;68253;52.506;5.486;2023-03-23T11:02:58;19.70;59.40
78876;DHT22;68253;52.506;5.486;2023-03-23T11:05:32;19.70;59.40
78876;DHT22;68253;52.506;5.486;2023-03-23T11:08:00;19.70;59.40
78876;DHT22;68253;52.506;5.486;2023-03-23T11:10:38;19.70;59.40
78876;DHT22;68253;52.506;5.486;2023-03-23T11:13:05;19.70;59.40
78876;DHT22;68253;52.506;5.486;2023-03-23T11:15:39;19.70;59.40
78876;DHT22;68253;52.506;5.486;2023-03-23T11:18:20;19.70;59.40
78876;DHT22;68253;52.506;5.486;2023-03-23T11:20:56;19.70;59.40
78876;DHT22;68253;52.506;5.486;2023-03-23T11:23:26;19.70;59.40
78876;DHT22;68253;52.506;5.486;2023-03-23T11:26:08;19.70;59.40
78876;DHT22;68253;52.506;5.486;2023-03-23T11:28:38;19.80;59.40
78876;DHT22;68253;52.506;5.486;2023-03-23T11:31:07;19.80;59.40
78876;DHT22;68253;52.506;5.486;2023-03-23T11:34:04;19.80;59.40
78876;DHT22;68253;52.506;5.486;2023-03-23T11:36:51;19.90;59.40
78876;DHT22;68253;52.506;5.486;2023-03-23T11:41:46;19.80;59.50
78876;DHT22;68253;52.506;5.486;2023-03-23T11:44:12;19.80;59.50
78876;DHT22;68253;52.506;5.486;2023-03-23T11:47:10;19.80;59.50
78876;DHT22;68253;52.506;5.486;2023-03-23T11:55:28;19.90;59.40
78876;DHT22;68253;52.506;5.486;2023-03-23T11:57:56;19.90;59.40
78876;DHT22;68253;52.506;5.486;2023-03-23T12:00:26;19.90;59.40
78876;DHT22;68253;52.506;5.486;2023-03-23T12:06:01;20.00;59.40
78876;DHT22;68253;52.506;5.486;2023-03-23T12:11:16;20.00;59.40
78876;DHT22;68253;52.506;5.486;2023-03-23T12:20:12;20.10;59.30
78876;DHT22;68253;52.506;5.486;2023-03-23T12:25:43;20.10;59.40
78876;DHT22;68253;52.506;5.486;2023-03-23T12:28:43;20.10;59.40
78876;DHT22;68253;52.506;5.486;2023-03-23T12:31:24;20.30;59.30
78876;DHT22;68253;52.506;5.486;2023-03-23T12:34:02;20.20;59.40
78876;DHT22;68253;52.506;5.486;2023-03-23T12:39:31;20.20;59.40
78876;DHT22;68253;52.506;5.486;2023-03-23T12:44:54;20.20;59.40
78876;DHT22;68253;52.506;5.486;2023-03-23T12:47:32;20.10;59.40
78876;DHT22;68253;52.506;5.486;2023-03-23T12:50:10;20.10;59.40
78876;DHT22;68253;52.506;5.486;2023-03-23T12:52:58;20.10;59.40
78876;DHT22;68253;52.506;5.486;2023-03-23T12:55:31;20.10;59.40
78876;DHT22;68253;52.506;5.486;2023-03-23T13:00:56;20.00;59.40
78876;DHT22;68253;52.506;5.486;2023-03-23T13:09:14;20.00;59.30
78876;DHT22;68253;52.506;5.486;2023-03-23T13:11:43;20.00;59.40
78876;DHT22;68253;52.506;5.486;2023-03-23T13:22:44;20.00;59.40
78876;DHT22;68253;52.506;5.486;2023-03-23T13:28:28;20.10;59.40
78876;DHT22;68253;52.506;5.486;2023-03-23T13:30:57;20.10;59.40
78876;DHT22;68253;52.506;5.486;2023-03-23T13:33:24;20.10;59.40
78876;DHT22;68253;52.506;5.486;2023-03-23T13:35:51;20.20;59.50
78876;DHT22;68253;52.506;5.486;2023-03-23T13:38:26;20.30;59.40
78876;DHT22;68253;52.506;5.486;2023-03-23T13:40:54;20.30;59.40
78876;DHT22;68253;52.506;5.486;2023-03-23T13:43:32;20.30;59.40
78876;DHT22;68253;52.506;5.486;2023-03-23T13:48:48;20.40;59.40
78876;DHT22;68253;52.506;5.486;2023-03-23T13:56:56;20.50;59.40
78876;DHT22;68253;52.506;5.486;2023-03-23T14:01:57;20.50;59.40
78876;DHT22;68253;52.506;5.486;2023-03-23T14:04:30;20.50;59.50
78876;DHT22;68253;52.506;5.486;2023-03-23T14:07:07;20.50;59.40
78876;DHT22;68253;52.506;5.486;2023-03-23T14:09:39;20.50;59.50
78876;DHT22;68253;52.506;5.486;2023-03-23T14:12:20;20.50;59.50
78876;DHT22;68253;52.506;5.486;2023-03-23T14:14:50;20.50;59.50
78876;DHT22;68253;52.506;5.486;2023-03-23T14:17:21;20.50;59.50
78876;DHT22;68253;52.506;5.486;2023-03-23T14:19:52;20.50;59.50
78876;DHT22;68253;52.506;5.486;2023-03-23T14:22:31;20.50;59.50
78876;DHT22;68253;52.506;5.486;2023-03-23T14:25:13;20.50;59.50
78876;DHT22;68253;52.506;5.486;2023-03-23T14:27:39;20.60;59.50
78876;DHT22;68253;52.506;5.486;2023-03-23T14:30:16;20.60;59.40
78876;DHT22;68253;52.506;5.486;2023-03-23T14:32:44;20.60;59.40
78876;DHT22;68253;52.506;5.486;2023-03-23T14:35:24;20.60;59.40
78876;DHT22;68253;52.506;5.486;2023-03-23T14:37:53;20.60;59.40
78876;DHT22;68253;52.506;5.486;2023-03-23T14:40:19;20.60;59.40
78876;DHT22;68253;52.506;5.486;2023-03-23T14:42:46;20.60;59.40
78876;DHT22;68253;52.506;5.486;2023-03-23T14:45:16;20.60;59.40
78876;DHT22;68253;52.506;5.486;2023-03-23T14:47:45;20.60;59.40
78876;DHT22;68253;52.506;5.486;2023-03-23T14:50:29;20.60;59.40
78876;DHT22;68253;52.506;5.486;2023-03-23T14:53:21;20.60;59.30
78876;DHT22;68253;52.506;5.486;2023-03-23T14:55:49;20.60;59.30
78876;DHT22;68253;52.506;5.486;2023-03-23T14:58:19;20.50;59.40
78876;DHT22;68253;52.506;5.486;2023-03-23T15:01:09;20.50;59.40
78876;DHT22;68253;52.506;5.486;2023-03-23T15:04:04;20.50;59.40
78876;DHT22;68253;52.506;5.486;2023-03-23T15:06:26;20.50;59.40
78876;DHT22;68253;52.506;5.486;2023-03-23T15:08:56;20.50;59.40
78876;DHT22;68253;52.506;5.486;2023-03-23T15:11:28;20.50;59.40
78876;DHT22;68253;52.506;5.486;2023-03-23T15:13:58;20.50;59.40
78876;DHT22;68253;52.506;5.486;2023-03-23T15:16:27;20.50;59.40
78876;DHT22;68253;52.506;5.486;2023-03-23T15:18:59;20.50;59.40
78876;DHT22;68253;52.506;5.486;2023-03-23T15:21:30;20.50;59.40
78876;DHT22;68253;52.506;5.486;2023-03-23T15:23:57;20.50;59.40
78876;DHT22;68253;52.506;5.486;2023-03-23T15:29:01;20.50;59.30
78876;DHT22;68253;52.506;5.486;2023-03-23T15:31:29;20.50;59.30
78876;DHT22;68253;52.506;5.486;2023-03-23T15:34:01;20.50;59.30
78876;DHT22;68253;52.506;5.486;2023-03-23T15:36:32;20.50;59.30
78876;DHT22;68253;52.506;5.486;2023-03-23T15:38:59;20.50;59.30
78876;DHT22;68253;52.506;5.486;2023-03-23T15:41:27;20.50;59.30
78876;DHT22;68253;52.506;5.486;2023-03-23T15:44:08;20.50;59.30
78876;DHT22;68253;52.506;5.486;2023-03-23T15:46:35;20.50;59.30
78876;DHT22;68253;52.506;5.486;2023-03-23T15:51:29;20.40;59.30
78876;DHT22;68253;52.506;5.486;2023-03-23T15:53:56;20.40;59.30
78876;DHT22;68253;52.506;5.486;2023-03-23T15:56:24;20.40;59.40
78876;DHT22;68253;52.506;5.486;2023-03-23T15:58:51;20.40;59.30
78876;DHT22;68253;52.506;5.486;2023-03-23T16:01:24;20.40;59.30
78876;DHT22;68253;52.506;5.486;2023-03-23T16:06:27;20.40;59.30
78876;DHT22;68253;52.506;5.486;2023-03-23T16:08:55;20.30;59.30
78876;DHT22;68253;52.506;5.486;2023-03-23T16:11:25;20.30;59.30
78876;DHT22;68253;52.506;5.486;2023-03-23T16:13:51;20.30;59.30
78876;DHT22;68253;52.506;5.486;2023-03-23T16:16:22;20.30;59.30
78876;DHT22;68253;52.506;5.486;2023-03-23T16:18:48;20.30;59.40
78876;DHT22;68253;52.506;5.486;2023-03-23T16:21:14;20.30;59.40
78876;DHT22;68253;52.506;5.486;2023-03-23T16:23:40;20.30;59.30
78876;DHT22;68253;52.506;5.486;2023-03-23T16:26:09;20.30;59.30
78876;DHT22;68253;52.506;5.486;2023-03-23T16:28:35;20.30;59.30
78876;DHT22;68253;52.506;5.486;2023-03-23T16:31:02;20.30;59.30
78876;DHT22;68253;52.506;5.486;2023-03-23T16:33:28;20.30;59.30
78876;DHT22;68253;52.506;5.486;2023-03-23T16:35:55;20.20;59.30
78876;DHT22;68253;52.506;5.486;2023-03-23T16:38:22;20.20;59.30
78876;DHT22;68253;52.506;5.486;2023-03-23T16:40:48;20.20;59.30
78876;DHT22;68253;52.506;5.486;2023-03-23T16:43:14;20.10;59.30
78876;DHT22;68253;52.506;5.486;2023-03-23T16:45:42;20.10;59.40
78876;DHT22;68253;52.506;5.486;2023-03-23T16:48:10;20.10;59.30
78876;DHT22;68253;52.506;5.486;2023-03-23T16:50:36;20.10;59.30
78876;DHT22;68253;52.506;5.486;2023-03-23T16:53:04;20.10;59.40
78876;DHT22;68253;52.506;5.486;2023-03-23T16:55:30;20.10;59.30
78876;DHT22;68253;52.506;5.486;2023-03-23T16:57:57;20.10;59.30
78876;DHT22;68253;52.506;5.486;2023-03-23T17:00:23;20.10;59.30
78876;DHT22;68253;52.506;5.486;2023-03-23T17:02:53;20.10;59.30
78876;DHT22;68253;52.506;5.486;2023-03-23T17:05:23;20.10;59.30
78876;DHT22;68253;52.506;5.486;2023-03-23T17:07:50;20.10;59.40
78876;DHT22;68253;52.506;5.486;2023-03-23T17:10:17;20.00;59.30
78876;DHT22;68253;52.506;5.486;2023-03-23T17:12:43;20.00;59.30
78876;DHT22;68253;52.506;5.486;2023-03-23T17:15:11;20.00;59.30
78876;DHT22;68253;52.506;5.486;2023-03-23T17:17:37;20.00;59.30
78876;DHT22;68253;52.506;5.486;2023-03-23T17:20:04;20.00;59.30
78876;DHT22;68253;52.506;5.486;2023-03-23T17:22:31;20.00;59.30
78876;DHT22;68253;52.506;5.486;2023-03-23T17:25:00;20.00;59.30
78876;DHT22;68253;52.506;5.486;2023-03-23T17:27:26;20.00;59.30
78876;DHT22;68253;52.506;5.486;2023-03-23T17:29:53;20.00;59.30
78876;DHT22;68253;52.506;5.486;2023-03-23T17:32:19;19.90;59.40
78876;DHT22;68253;52.506;5.486;2023-03-23T17:34:46;19.90;59.40
78876;DHT22;68253;52.506;5.486;2023-03-23T17:37:12;20.00;59.40
78876;DHT22;68253;52.506;5.486;2023-03-23T17:39:38;19.90;59.40
78876;DHT22;68253;52.506;5.486;2023-03-23T17:42:04;19.90;59.40
78876;DHT22;68253;52.506;5.486;2023-03-23T17:44:31;19.90;59.50
78876;DHT22;68253;52.506;5.486;2023-03-23T17:46:57;19.90;59.50
78876;DHT22;68253;52.506;5.486;2023-03-23T17:49:26;20.00;59.60
78876;DHT22;68253;52.506;5.486;2023-03-23T17:51:52;20.00;59.60